sensor_id;sensor_type;location;lat;lon;timestamp;temperature;humidity
53800;DHT22;39708;53.210;6.948;2023-02-28T00:00:44;1.40;99.90
53800;DHT22;39708;53.210;6.948;2023-02-28T00:03:10;1.50;99.90
53800;DHT22;39708;53.210;6.948;2023-02-28T00:05:36;2.40;99.90
53800;DHT22;39708;53.210;6.948;2023-02-28T00:08:02;2.20;99.90
53800;DHT22;39708;53.210;6.948;2023-02-28T00:10:29;1.90;99.90
53800;DHT22;39708;53.210;6.948;2023-02-28T00:13:00;2.00;99.90
53800;DHT22;39708;53.210;6.948;2023-02-28T00:15:26;2.10;99.90
53800;DHT22;39708;53.210;6.948;2023-02-28T00:17:52;2.10;99.90
53800;DHT22;39708;53.210;6.948;2023-02-28T00:20:18;2.30;99.90
53800;DHT22;39708;53.210;6.948;2023-02-28T00:22:45;2.20;99.90
53800;DHT22;39708;53.210;6.948;2023-02-28T00:25:15;2.30;99.90
53800;DHT22;39708;53.210;6.948;2023-02-28T00:27:41;3.30;99.90
53800;DHT22;39708;53.210;6.948;2023-02-28T00:30:11;2.30;99.90
53800;DHT22;39708;53.210;6.948;2023-02-28T00:32:37;2.40;99.90
53800;DHT22;39708;53.210;6.948;2023-02-28T00:35:03;2.40;99.90
53800;DHT22;39708;53.210;6.948;2023-02-28T00:37:29;2.40;99.90
53800;DHT22;39708;53.210;6.948;2023-02-28T00:39:55;2.40;99.90
53800;DHT22;39708;53.210;6.948;2023-02-28T00:42:21;2.50;99.90
53800;DHT22;39708;53.210;6.948;2023-02-28T00:44:47;2.40;99.90
53800;DHT22;39708;53.210;6.948;2023-02-28T00:47:13;2.40;99.90
53800;DHT22;39708;53.210;6.948;2023-02-28T00:49:38;2.40;99.90
53800;DHT22;39708;53.210;6.948;2023-02-28T00:52:05;2.40;99.90
53800;DHT22;39708;53.210;6.948;2023-02-28T00:54:30;2.40;99.90
53800;DHT22;39708;53.210;6.948;2023-02-28T00:56:56;2.30;99.90
53800;DHT22;39708;53.210;6.948;2023-02-28T00:59:21;2.30;99.90
53800;DHT22;39708;53.210;6.948;2023-02-28T01:01:47;2.40;99.90
53800;DHT22;39708;53.210;6.948;2023-02-28T01:04:14;3.00;99.90
53800;DHT22;39708;53.210;6.948;2023-02-28T01:06:40;3.10;99.90
53800;DHT22;39708;53.210;6.948;2023-02-28T01:09:06;2.50;99.90
53800;DHT22;39708;53.210;6.948;2023-02-28T01:11:32;2.50;99.90
53800;DHT22;39708;53.210;6.948;2023-02-28T01:13:58;2.60;99.90
53800;DHT22;39708;53.210;6.948;2023-02-28T01:16:25;2.70;99.90
53800;DHT22;39708;53.210;6.948;2023-02-28T01:18:50;2.60;99.90
53800;DHT22;39708;53.210;6.948;2023-02-28T01:21:19;2.60;99.90
53800;DHT22;39708;53.210;6.948;2023-02-28T01:23:45;2.60;99.90
53800;DHT22;39708;53.210;6.948;2023-02-28T01:26:17;2.70;99.90
53800;DHT22;39708;53.210;6.948;2023-02-28T01:28:43;2.60;99.90
53800;DHT22;39708;53.210;6.948;2023-02-28T01:31:09;2.60;99.90
53800;DHT22;39708;53.210;6.948;2023-02-28T01:33:35;2.60;99.90
53800;DHT22;39708;53.210;6.948;2023-02-28T01:36:06;2.60;99.90
53800;DHT22;39708;53.210;6.948;2023-02-28T01:38:33;2.60;99.90
53800;DHT22;39708;53.210;6.948;2023-02-28T01:40:59;2.60;99.90
53800;DHT22;39708;53.210;6.948;2023-02-28T01:43:30;2.60;99.90
53800;DHT22;39708;53.210;6.948;2023-02-28T01:45:57;2.60;99.90
53800;DHT22;39708;53.210;6.948;2023-02-28T01:48:31;2.60;99.90
53800;DHT22;39708;53.210;6.948;2023-02-28T01:51:02;2.60;99.90
53800;DHT22;39708;53.210;6.948;2023-02-28T01:53:47;2.60;99.90
53800;DHT22;39708;53.210;6.948;2023-02-28T01:56:18;2.60;99.90
53800;DHT22;39708;53.210;6.948;2023-02-28T01:58:49;2.70;99.90
53800;DHT22;39708;53.210;6.948;2023-02-28T02:01:15;2.60;99.90
53800;DHT22;39708;53.210;6.948;2023-02-28T02:03:51;2.70;99.90
53800;DHT22;39708;53.210;6.948;2023-02-28T02:06:38;2.70;99.90
53800;DHT22;39708;53.210;6.948;2023-02-28T02:09:04;2.70;99.90
53800;DHT22;39708;53.210;6.948;2023-02-28T02:11:30;2.70;99.90
53800;DHT22;39708;53.210;6.948;2023-02-28T02:35:56;2.90;99.90
53800;DHT22;39708;53.210;6.948;2023-02-28T02:38:50;2.90;99.90
53800;DHT22;39708;53.210;6.948;2023-02-28T02:41:34;2.90;99.90
53800;DHT22;39708;53.210;6.948;2023-02-28T02:46:44;2.90;99.90
53800;DHT22;39708;53.210;6.948;2023-02-28T02:49:17;2.90;99.90
53800;DHT22;39708;53.210;6.948;2023-02-28T02:51:46;3.30;99.90
53800;DHT22;39708;53.210;6.948;2023-02-28T02:54:19;2.90;99.90
53800;DHT22;39708;53.210;6.948;2023-02-28T02:56:48;2.80;99.90
53800;DHT22;39708;53.210;6.948;2023-02-28T02:59:18;2.80;99.90
53800;DHT22;39708;53.210;6.948;2023-02-28T03:01:53;2.80;99.90
53800;DHT22;39708;53.210;6.948;2023-02-28T03:04:22;2.90;99.90
53800;DHT22;39708;53.210;6.948;2023-02-28T03:06:50;2.50;99.90
53800;DHT22;39708;53.210;6.948;2023-02-28T03:09:24;2.20;99.90
53800;DHT22;39708;53.210;6.948;2023-02-28T03:11:54;1.80;99.90
53800;DHT22;39708;53.210;6.948;2023-02-28T03:17:30;1.20;99.90
53800;DHT22;39708;53.210;6.948;2023-02-28T03:25:38;0.90;99.90
53800;DHT22;39708;53.210;6.948;2023-02-28T03:28:18;0.80;99.90
53800;DHT22;39708;53.210;6.948;2023-02-28T03:30:52;0.80;99.90
53800;DHT22;39708;53.210;6.948;2023-02-28T03:33:33;0.90;99.90
53800;DHT22;39708;53.210;6.948;2023-02-28T03:36:09;1.10;99.90
53800;DHT22;39708;53.210;6.948;2023-02-28T03:38:51;1.40;99.90
53800;DHT22;39708;53.210;6.948;2023-02-28T03:41:26;1.60;99.90
53800;DHT22;39708;53.210;6.948;2023-02-28T03:43:56;2.30;99.90
53800;DHT22;39708;53.210;6.948;2023-02-28T03:46:26;1.60;99.90
53800;DHT22;39708;53.210;6.948;2023-02-28T03:49:01;1.10;99.90
53800;DHT22;39708;53.210;6.948;2023-02-28T03:51:28;0.80;99.90
53800;DHT22;39708;53.210;6.948;2023-02-28T03:53:58;0.80;99.90
53800;DHT22;39708;53.210;6.948;2023-02-28T03:56:44;0.70;99.90
53800;DHT22;39708;53.210;6.948;2023-02-28T03:59:20;0.50;99.90
53800;DHT22;39708;53.210;6.948;2023-02-28T04:01:48;0.50;99.90
53800;DHT22;39708;53.210;6.948;2023-02-28T04:04:15;0.50;99.90
53800;DHT22;39708;53.210;6.948;2023-02-28T04:06:42;0.40;99.90
53800;DHT22;39708;53.210;6.948;2023-02-28T04:09:10;0.50;99.90
53800;DHT22;39708;53.210;6.948;2023-02-28T04:11:41;0.50;99.90
53800;DHT22;39708;53.210;6.948;2023-02-28T04:14:09;0.60;99.90
53800;DHT22;39708;53.210;6.948;2023-02-28T04:16:36;0.90;99.90
53800;DHT22;39708;53.210;6.948;2023-02-28T04:19:04;1.20;99.90
53800;DHT22;39708;53.210;6.948;2023-02-28T04:21:36;1.30;99.90
53800;DHT22;39708;53.210;6.948;2023-02-28T04:24:03;1.60;99.90
53800;DHT22;39708;53.210;6.948;2023-02-28T04:26:33;1.20;99.90
53800;DHT22;39708;53.210;6.948;2023-02-28T04:29:00;0.90;99.90
53800;DHT22;39708;53.210;6.948;2023-02-28T04:31:25;0.60;99.90
53800;DHT22;39708;53.210;6.948;2023-02-28T04:33:51;0.60;99.90
53800;DHT22;39708;53.210;6.948;2023-02-28T04:36:17;0.50;99.90
53800;DHT22;39708;53.210;6.948;2023-02-28T04:38:44;0.30;99.90
53800;DHT22;39708;53.210;6.948;2023-02-28T04:41:10;0.30;99.90
53800;DHT22;39708;53.210;6.948;2023-02-28T04:43:36;0.20;99.90
53800;DHT22;39708;53.210;6.948;2023-02-28T04:46:03;0.20;99.90
53800;DHT22;39708;53.210;6.948;2023-02-28T04:48:30;0.10;99.90
53800;DHT22;39708;53.210;6.948;2023-02-28T04:51:01;0.20;99.90
53800;DHT22;39708;53.210;6.948;2023-02-28T04:53:27;0.20;99.90
53800;DHT22;39708;53.210;6.948;2023-02-28T04:55:55;0.20;99.90
53800;DHT22;39708;53.210;6.948;2023-02-28T04:58:21;0.50;99.90
53800;DHT22;39708;53.210;6.948;2023-02-28T05:00:53;0.70;99.90
53800;DHT22;39708;53.210;6.948;2023-02-28T05:03:20;1.00;99.90
53800;DHT22;39708;53.210;6.948;2023-02-28T05:05:47;1.30;99.90
53800;DHT22;39708;53.210;6.948;2023-02-28T05:08:13;1.20;99.90
53800;DHT22;39708;53.210;6.948;2023-02-28T05:10:39;0.90;99.90
53800;DHT22;39708;53.210;6.948;2023-02-28T05:13:04;0.70;99.90
53800;DHT22;39708;53.210;6.948;2023-02-28T05:15:30;0.40;99.90
53800;DHT22;39708;53.210;6.948;2023-02-28T05:17:56;0.50;99.90
53800;DHT22;39708;53.210;6.948;2023-02-28T05:20:21;0.30;99.90
53800;DHT22;39708;53.210;6.948;2023-02-28T05:22:47;0.30;99.90
53800;DHT22;39708;53.210;6.948;2023-02-28T05:25:17;0.20;99.90
53800;DHT22;39708;53.210;6.948;2023-02-28T05:27:43;0.20;99.90
53800;DHT22;39708;53.210;6.948;2023-02-28T05:30:09;0.30;99.90
53800;DHT22;39708;53.210;6.948;2023-02-28T05:32:39;0.20;99.90
53800;DHT22;39708;53.210;6.948;2023-02-28T05:35:12;0.20;99.90
53800;DHT22;39708;53.210;6.948;2023-02-28T05:37:38;0.30;99.90
53800;DHT22;39708;53.210;6.948;2023-02-28T05:40:05;0.30;99.90
53800;DHT22;39708;53.210;6.948;2023-02-28T05:42:32;0.40;99.90
53800;DHT22;39708;53.210;6.948;2023-02-28T05:44:58;0.60;99.90
53800;DHT22;39708;53.210;6.948;2023-02-28T05:47:24;0.70;99.90
53800;DHT22;39708;53.210;6.948;2023-02-28T05:49:50;1.00;99.90
53800;DHT22;39708;53.210;6.948;2023-02-28T05:52:15;1.10;99.90
53800;DHT22;39708;53.210;6.948;2023-02-28T05:54:41;1.40;99.90
53800;DHT22;39708;53.210;6.948;2023-02-28T05:57:07;1.60;99.90
53800;DHT22;39708;53.210;6.948;2023-02-28T05:59:32;1.30;99.90
53800;DHT22;39708;53.210;6.948;2023-02-28T06:01:58;0.90;99.90
53800;DHT22;39708;53.210;6.948;2023-02-28T06:04:24;0.70;99.90
53800;DHT22;39708;53.210;6.948;2023-02-28T06:06:50;0.40;99.90
53800;DHT22;39708;53.210;6.948;2023-02-28T06:09:16;0.20;99.90
53800;DHT22;39708;53.210;6.948;2023-02-28T06:11:43;0.00;99.90
53800;DHT22;39708;53.210;6.948;2023-02-28T06:14:15;0.10;99.90
53800;DHT22;39708;53.210;6.948;2023-02-28T06:16:41;0.10;99.90
53800;DHT22;39708;53.210;6.948;2023-02-28T06:19:07;0.00;99.90
53800;DHT22;39708;53.210;6.948;2023-02-28T06:21:32;1.40;99.90
53800;DHT22;39708;53.210;6.948;2023-02-28T06:23:58;0.20;99.90
53800;DHT22;39708;53.210;6.948;2023-02-28T06:26:24;0.30;99.90
53800;DHT22;39708;53.210;6.948;2023-02-28T06:28:50;0.30;99.90
53800;DHT22;39708;53.210;6.948;2023-02-28T06:31:18;0.40;99.90
53800;DHT22;39708;53.210;6.948;2023-02-28T06:33:45;0.40;99.90
53800;DHT22;39708;53.210;6.948;2023-02-28T06:36:12;0.70;99.90
53800;DHT22;39708;53.210;6.948;2023-02-28T06:38:38;0.80;99.90
53800;DHT22;39708;53.210;6.948;2023-02-28T06:41:05;1.30;99.90
53800;DHT22;39708;53.210;6.948;2023-02-28T06:43:34;2.20;99.90
53800;DHT22;39708;53.210;6.948;2023-02-28T06:46:02;1.40;99.90
53800;DHT22;39708;53.210;6.948;2023-02-28T06:48:28;0.80;99.90
53800;DHT22;39708;53.210;6.948;2023-02-28T06:51:08;0.50;99.90
53800;DHT22;39708;53.210;6.948;2023-02-28T06:53:35;0.60;99.90
53800;DHT22;39708;53.210;6.948;2023-02-28T06:56:04;0.10;99.90
53800;DHT22;39708;53.210;6.948;2023-02-28T06:58:31;0.00;99.90
53800;DHT22;39708;53.210;6.948;2023-02-28T07:00:57;0.00;99.90
53800;DHT22;39708;53.210;6.948;2023-02-28T07:03:22;0.00;99.90
53800;DHT22;39708;53.210;6.948;2023-02-28T07:05:48;0.00;99.90
53800;DHT22;39708;53.210;6.948;2023-02-28T07:08:14;0.10;99.90
53800;DHT22;39708;53.210;6.948;2023-02-28T07:10:41;0.20;99.90
53800;DHT22;39708;53.210;6.948;2023-02-28T07:13:08;0.20;99.90
53800;DHT22;39708;53.210;6.948;2023-02-28T07:15:34;0.10;99.90
53800;DHT22;39708;53.210;6.948;2023-02-28T07:18:00;0.20;99.90
53800;DHT22;39708;53.210;6.948;2023-02-28T07:20:26;0.30;99.90
53800;DHT22;39708;53.210;6.948;2023-02-28T07:22:52;0.30;99.90
53800;DHT22;39708;53.210;6.948;2023-02-28T07:25:25;0.40;99.90
53800;DHT22;39708;53.210;6.948;2023-02-28T07:27:51;0.50;99.90
53800;DHT22;39708;53.210;6.948;2023-02-28T07:30:18;0.50;99.90
53800;DHT22;39708;53.210;6.948;2023-02-28T07:32:44;0.40;99.90
53800;DHT22;39708;53.210;6.948;2023-02-28T07:35:09;0.60;99.90
53800;DHT22;39708;53.210;6.948;2023-02-28T07:37:35;0.60;99.90
53800;DHT22;39708;53.210;6.948;2023-02-28T07:40:08;0.60;99.90
53800;DHT22;39708;53.210;6.948;2023-02-28T07:42:35;0.70;99.90
53800;DHT22;39708;53.210;6.948;2023-02-28T07:45:01;0.90;99.90
53800;DHT22;39708;53.210;6.948;2023-02-28T07:47:29;1.00;99.90
53800;DHT22;39708;53.210;6.948;2023-02-28T07:49:55;1.10;99.90
53800;DHT22;39708;53.210;6.948;2023-02-28T07:52:21;1.30;99.90
53800;DHT22;39708;53.210;6.948;2023-02-28T07:54:46;1.50;99.90
53800;DHT22;39708;53.210;6.948;2023-02-28T07:57:12;1.70;99.90
53800;DHT22;39708;53.210;6.948;2023-02-28T07:59:37;1.90;99.90
53800;DHT22;39708;53.210;6.948;2023-02-28T08:02:03;1.50;99.90
53800;DHT22;39708;53.210;6.948;2023-02-28T08:04:32;1.20;99.90
53800;DHT22;39708;53.210;6.948;2023-02-28T08:06:57;1.00;99.90
53800;DHT22;39708;53.210;6.948;2023-02-28T08:09:23;1.20;99.90
53800;DHT22;39708;53.210;6.948;2023-02-28T08:11:49;1.50;99.90
53800;DHT22;39708;53.210;6.948;2023-02-28T08:14:15;1.70;99.90
53800;DHT22;39708;53.210;6.948;2023-02-28T08:16:40;1.90;99.90
53800;DHT22;39708;53.210;6.948;2023-02-28T08:19:08;2.10;99.90
53800;DHT22;39708;53.210;6.948;2023-02-28T08:21:34;2.20;99.90
53800;DHT22;39708;53.210;6.948;2023-02-28T08:24:00;2.20;99.90
53800;DHT22;39708;53.210;6.948;2023-02-28T08:26:25;2.30;99.90
53800;DHT22;39708;53.210;6.948;2023-02-28T08:28:51;2.30;99.90
53800;DHT22;39708;53.210;6.948;2023-02-28T08:31:17;2.40;99.90
53800;DHT22;39708;53.210;6.948;2023-02-28T08:33:44;2.40;99.90
53800;DHT22;39708;53.210;6.948;2023-02-28T08:36:10;2.50;99.90
53800;DHT22;39708;53.210;6.948;2023-02-28T08:38:37;3.20;99.90
53800;DHT22;39708;53.210;6.948;2023-02-28T08:41:05;2.60;99.90
53800;DHT22;39708;53.210;6.948;2023-02-28T08:43:33;2.60;99.90
53800;DHT22;39708;53.210;6.948;2023-02-28T08:45:59;2.60;99.90
53800;DHT22;39708;53.210;6.948;2023-02-28T08:48:29;2.60;99.90
53800;DHT22;39708;53.210;6.948;2023-02-28T08:50:58;2.70;99.90
53800;DHT22;39708;53.210;6.948;2023-02-28T08:53:23;2.60;99.90
53800;DHT22;39708;53.210;6.948;2023-02-28T08:56:03;2.70;99.90
53800;DHT22;39708;53.210;6.948;2023-02-28T08:58:29;2.70;99.90
53800;DHT22;39708;53.210;6.948;2023-02-28T09:00:55;3.70;99.90
53800;DHT22;39708;53.210;6.948;2023-02-28T09:03:21;2.80;99.90
53800;DHT22;39708;53.210;6.948;2023-02-28T09:05:58;2.90;99.90
53800;DHT22;39708;53.210;6.948;2023-02-28T09:08:26;2.90;99.90
53800;DHT22;39708;53.210;6.948;2023-02-28T09:10:53;2.90;99.90
53800;DHT22;39708;53.210;6.948;2023-02-28T09:13:20;3.00;99.90
53800;DHT22;39708;53.210;6.948;2023-02-28T09:15:46;3.00;99.90
53800;DHT22;39708;53.210;6.948;2023-02-28T09:18:12;3.10;99.90
53800;DHT22;39708;53.210;6.948;2023-02-28T09:20:39;3.10;99.90
53800;DHT22;39708;53.210;6.948;2023-02-28T09:23:08;3.10;99.90
53800;DHT22;39708;53.210;6.948;2023-02-28T09:25:34;3.20;99.90
53800;DHT22;39708;53.210;6.948;2023-02-28T09:28:00;3.10;99.90
53800;DHT22;39708;53.210;6.948;2023-02-28T09:30:25;3.20;99.90
53800;DHT22;39708;53.210;6.948;2023-02-28T09:32:51;3.20;99.90
53800;DHT22;39708;53.210;6.948;2023-02-28T09:35:24;3.30;99.90
53800;DHT22;39708;53.210;6.948;2023-02-28T09:37:51;3.30;99.90
53800;DHT22;39708;53.210;6.948;2023-02-28T09:40:22;3.40;99.90
53800;DHT22;39708;53.210;6.948;2023-02-28T09:42:51;3.50;99.90
53800;DHT22;39708;53.210;6.948;2023-02-28T09:45:37;3.50;99.90
53800;DHT22;39708;53.210;6.948;2023-02-28T09:48:12;3.50;99.90
53800;DHT22;39708;53.210;6.948;2023-02-28T09:50:46;3.60;99.90
53800;DHT22;39708;53.210;6.948;2023-02-28T09:53:25;3.70;99.90
53800;DHT22;39708;53.210;6.948;2023-02-28T09:55:57;3.70;99.90
53800;DHT22;39708;53.210;6.948;2023-02-28T09:58:32;3.80;99.90
53800;DHT22;39708;53.210;6.948;2023-02-28T10:06:33;4.10;99.90
53800;DHT22;39708;53.210;6.948;2023-02-28T10:09:10;4.20;99.90
53800;DHT22;39708;53.210;6.948;2023-02-28T10:11:40;4.20;99.90
53800;DHT22;39708;53.210;6.948;2023-02-28T10:14:28;4.20;99.90
53800;DHT22;39708;53.210;6.948;2023-02-28T10:17:10;4.20;99.90
53800;DHT22;39708;53.210;6.948;2023-02-28T10:20:02;4.30;99.90
53800;DHT22;39708;53.210;6.948;2023-02-28T10:25:21;4.30;99.90
53800;DHT22;39708;53.210;6.948;2023-02-28T10:27:48;4.30;99.90
53800;DHT22;39708;53.210;6.948;2023-02-28T10:30:14;4.20;99.90
53800;DHT22;39708;53.210;6.948;2023-02-28T10:32:47;4.40;99.90
53800;DHT22;39708;53.210;6.948;2023-02-28T10:35:23;5.20;99.90
53800;DHT22;39708;53.210;6.948;2023-02-28T10:37:55;6.20;99.90
53800;DHT22;39708;53.210;6.948;2023-02-28T10:42:57;7.30;99.90
53800;DHT22;39708;53.210;6.948;2023-02-28T10:45:23;7.10;99.90
53800;DHT22;39708;53.210;6.948;2023-02-28T10:50:51;5.60;99.90
53800;DHT22;39708;53.210;6.948;2023-02-28T10:56:21;4.30;99.90
53800;DHT22;39708;53.210;6.948;2023-02-28T10:58:54;3.90;99.90
53800;DHT22;39708;53.210;6.948;2023-02-28T11:01:22;3.70;99.90
53800;DHT22;39708;53.210;6.948;2023-02-28T11:03:49;4.30;99.90
53800;DHT22;39708;53.210;6.948;2023-02-28T11:06:24;4.80;99.90
53800;DHT22;39708;53.210;6.948;2023-02-28T11:08:54;5.90;99.90
53800;DHT22;39708;53.210;6.948;2023-02-28T11:11:21;7.10;99.90
53800;DHT22;39708;53.210;6.948;2023-02-28T11:13:51;7.30;99.90
53800;DHT22;39708;53.210;6.948;2023-02-28T11:16:18;7.90;99.90
53800;DHT22;39708;53.210;6.948;2023-02-28T11:18:51;8.10;99.90
53800;DHT22;39708;53.210;6.948;2023-02-28T11:21:27;8.40;99.90
53800;DHT22;39708;53.210;6.948;2023-02-28T11:26:46;8.50;99.90
53800;DHT22;39708;53.210;6.948;2023-02-28T11:29:34;8.50;99.90
53800;DHT22;39708;53.210;6.948;2023-02-28T11:34:32;8.00;99.90
53800;DHT22;39708;53.210;6.948;2023-02-28T11:36:59;7.70;99.90
53800;DHT22;39708;53.210;6.948;2023-02-28T11:39:27;7.40;99.90
53800;DHT22;39708;53.210;6.948;2023-02-28T11:50:38;6.40;99.90
53800;DHT22;39708;53.210;6.948;2023-02-28T12:10:24;5.40;99.90
53800;DHT22;39708;53.210;6.948;2023-02-28T12:13:26;5.40;99.90
53800;DHT22;39708;53.210;6.948;2023-02-28T12:16:05;5.40;99.90
53800;DHT22;39708;53.210;6.948;2023-02-28T12:22:04;5.80;99.90
53800;DHT22;39708;53.210;6.948;2023-02-28T12:27:16;6.10;99.90
53800;DHT22;39708;53.210;6.948;2023-02-28T12:29:54;6.20;99.90
53800;DHT22;39708;53.210;6.948;2023-02-28T12:32:37;6.40;99.90
53800;DHT22;39708;53.210;6.948;2023-02-28T12:35:14;6.60;99.90
53800;DHT22;39708;53.210;6.948;2023-02-28T12:37:45;6.80;99.90
53800;DHT22;39708;53.210;6.948;2023-02-28T12:40:20;7.00;99.90
53800;DHT22;39708;53.210;6.948;2023-02-28T12:42:50;7.20;99.90
53800;DHT22;39708;53.210;6.948;2023-02-28T12:45:20;7.30;99.90
53800;DHT22;39708;53.210;6.948;2023-02-28T12:47:52;7.40;99.90
53800;DHT22;39708;53.210;6.948;2023-02-28T12:50:21;7.40;99.90
53800;DHT22;39708;53.210;6.948;2023-02-28T12:53:01;7.50;99.90
53800;DHT22;39708;53.210;6.948;2023-02-28T12:58:14;7.60;99.90
53800;DHT22;39708;53.210;6.948;2023-02-28T13:07:10;7.60;99.90
53800;DHT22;39708;53.210;6.948;2023-02-28T13:09:55;7.40;99.90
53800;DHT22;39708;53.210;6.948;2023-02-28T13:12:21;7.20;99.90
53800;DHT22;39708;53.210;6.948;2023-02-28T13:14:48;7.10;99.90
53800;DHT22;39708;53.210;6.948;2023-02-28T13:17:21;7.00;99.90
53800;DHT22;39708;53.210;6.948;2023-02-28T13:22:42;6.90;99.90
53800;DHT22;39708;53.210;6.948;2023-02-28T13:28:11;6.70;99.90
53800;DHT22;39708;53.210;6.948;2023-02-28T13:36:22;6.40;99.90
53800;DHT22;39708;53.210;6.948;2023-02-28T13:38:50;6.70;99.90
53800;DHT22;39708;53.210;6.948;2023-02-28T13:44:19;7.30;99.90
53800;DHT22;39708;53.210;6.948;2023-02-28T13:51:53;7.00;99.90
53800;DHT22;39708;53.210;6.948;2023-02-28T14:05:34;6.80;99.90
53800;DHT22;39708;53.210;6.948;2023-02-28T14:08:10;7.00;99.90
53800;DHT22;39708;53.210;6.948;2023-02-28T14:10:45;6.80;99.90
53800;DHT22;39708;53.210;6.948;2023-02-28T14:15:56;6.70;99.90
53800;DHT22;39708;53.210;6.948;2023-02-28T14:18:34;6.70;99.90
53800;DHT22;39708;53.210;6.948;2023-02-28T14:21:21;6.70;99.90
53800;DHT22;39708;53.210;6.948;2023-02-28T14:30:11;6.80;99.90
53800;DHT22;39708;53.210;6.948;2023-02-28T14:33:00;6.90;99.90
53800;DHT22;39708;53.210;6.948;2023-02-28T14:38:05;6.80;99.90
53800;DHT22;39708;53.210;6.948;2023-02-28T14:40:34;6.90;99.90
53800;DHT22;39708;53.210;6.948;2023-02-28T14:43:03;6.70;99.90
53800;DHT22;39708;53.210;6.948;2023-02-28T14:45:31;6.60;99.90
53800;DHT22;39708;53.210;6.948;2023-02-28T14:47:58;6.90;99.90
53800;DHT22;39708;53.210;6.948;2023-02-28T14:50:31;6.40;99.90
53800;DHT22;39708;53.210;6.948;2023-02-28T14:52:57;6.40;99.90
53800;DHT22;39708;53.210;6.948;2023-02-28T14:55:27;6.30;99.90
53800;DHT22;39708;53.210;6.948;2023-02-28T14:58:01;6.30;99.90
53800;DHT22;39708;53.210;6.948;2023-02-28T15:00:33;6.30;99.90
53800;DHT22;39708;53.210;6.948;2023-02-28T15:03:11;6.30;99.90
53800;DHT22;39708;53.210;6.948;2023-02-28T15:05:44;6.40;99.90
53800;DHT22;39708;53.210;6.948;2023-02-28T15:08:16;6.40;99.90
53800;DHT22;39708;53.210;6.948;2023-02-28T15:10:44;6.30;99.90
53800;DHT22;39708;53.210;6.948;2023-02-28T15:13:13;6.30;99.90
53800;DHT22;39708;53.210;6.948;2023-02-28T15:16:04;6.30;99.90
53800;DHT22;39708;53.210;6.948;2023-02-28T15:21:44;6.20;99.90
53800;DHT22;39708;53.210;6.948;2023-02-28T15:24:21;6.10;99.90
53800;DHT22;39708;53.210;6.948;2023-02-28T15:26:54;6.20;99.90
53800;DHT22;39708;53.210;6.948;2023-02-28T15:29:23;6.20;99.90
53800;DHT22;39708;53.210;6.948;2023-02-28T15:32:00;6.10;99.90
53800;DHT22;39708;53.210;6.948;2023-02-28T15:34:39;6.10;99.90
53800;DHT22;39708;53.210;6.948;2023-02-28T15:37:40;6.20;99.90
53800;DHT22;39708;53.210;6.948;2023-02-28T15:40:28;6.20;99.90
53800;DHT22;39708;53.210;6.948;2023-02-28T15:46:02;6.00;99.90
53800;DHT22;39708;53.210;6.948;2023-02-28T15:48:38;6.00;99.90
53800;DHT22;39708;53.210;6.948;2023-02-28T15:51:20;6.00;99.90
53800;DHT22;39708;53.210;6.948;2023-02-28T15:53:59;6.00;99.90
53800;DHT22;39708;53.210;6.948;2023-02-28T15:56:30;5.90;99.90
53800;DHT22;39708;53.210;6.948;2023-02-28T15:59:06;5.90;99.90
53800;DHT22;39708;53.210;6.948;2023-02-28T16:01:38;5.90;99.90
53800;DHT22;39708;53.210;6.948;2023-02-28T16:04:07;5.80;99.90
53800;DHT22;39708;53.210;6.948;2023-02-28T16:06:38;5.80;99.90
53800;DHT22;39708;53.210;6.948;2023-02-28T16:09:07;5.70;99.90
53800;DHT22;39708;53.210;6.948;2023-02-28T16:11:37;5.70;99.90
53800;DHT22;39708;53.210;6.948;2023-02-28T16:14:04;5.70;99.90
53800;DHT22;39708;53.210;6.948;2023-02-28T16:16:31;5.50;99.90
53800;DHT22;39708;53.210;6.948;2023-02-28T16:18:56;5.50;99.90
53800;DHT22;39708;53.210;6.948;2023-02-28T16:21:22;5.50;99.90
53800;DHT22;39708;53.210;6.948;2023-02-28T16:23:48;5.40;99.90
53800;DHT22;39708;53.210;6.948;2023-02-28T16:26:20;5.30;99.90
53800;DHT22;39708;53.210;6.948;2023-02-28T16:28:46;5.40;99.90
53800;DHT22;39708;53.210;6.948;2023-02-28T16:31:12;5.20;99.90
53800;DHT22;39708;53.210;6.948;2023-02-28T16:33:43;5.10;99.90
53800;DHT22;39708;53.210;6.948;2023-02-28T16:36:17;5.10;99.90
53800;DHT22;39708;53.210;6.948;2023-02-28T16:38:43;5.00;99.90
53800;DHT22;39708;53.210;6.948;2023-02-28T16:41:13;5.40;99.90
53800;DHT22;39708;53.210;6.948;2023-02-28T16:43:45;4.90;99.90
53800;DHT22;39708;53.210;6.948;2023-02-28T16:46:12;4.80;99.90
53800;DHT22;39708;53.210;6.948;2023-02-28T16:48:38;4.70;99.90
53800;DHT22;39708;53.210;6.948;2023-02-28T16:51:07;4.70;99.90
53800;DHT22;39708;53.210;6.948;2023-02-28T16:53:33;4.70;99.90
53800;DHT22;39708;53.210;6.948;2023-02-28T16:56:00;4.50;99.90
53800;DHT22;39708;53.210;6.948;2023-02-28T16:58:27;4.50;99.90
53800;DHT22;39708;53.210;6.948;2023-02-28T17:00:53;4.30;99.90
53800;DHT22;39708;53.210;6.948;2023-02-28T17:03:26;4.20;99.90
53800;DHT22;39708;53.210;6.948;2023-02-28T17:05:53;4.10;99.90
53800;DHT22;39708;53.210;6.948;2023-02-28T17:08:18;4.00;99.90
53800;DHT22;39708;53.210;6.948;2023-02-28T17:10:44;3.90;99.90
53800;DHT22;39708;53.210;6.948;2023-02-28T17:13:10;4.70;99.90
53800;DHT22;39708;53.210;6.948;2023-02-28T17:15:36;3.70;99.90
53800;DHT22;39708;53.210;6.948;2023-02-28T17:18:03;3.60;99.90
53800;DHT22;39708;53.210;6.948;2023-02-28T17:20:30;3.60;99.90
53800;DHT22;39708;53.210;6.948;2023-02-28T17:22:56;3.50;99.90
53800;DHT22;39708;53.210;6.948;2023-02-28T17:25:22;3.50;99.90
53800;DHT22;39708;53.210;6.948;2023-02-28T17:27:48;3.40;99.90
53800;DHT22;39708;53.210;6.948;2023-02-28T17:32:41;3.30;99.90
53800;DHT22;39708;53.210;6.948;2023-02-28T17:35:07;3.30;99.90
53800;DHT22;39708;53.210;6.948;2023-02-28T17:37:33;3.20;99.90
53800;DHT22;39708;53.210;6.948;2023-02-28T17:39:59;3.10;99.90
53800;DHT22;39708;53.210;6.948;2023-02-28T17:42:24;3.40;99.90
53800;DHT22;39708;53.210;6.948;2023-02-28T17:44:50;3.00;99.90
53800;DHT22;39708;53.210;6.948;2023-02-28T17:47:16;2.80;99.90
53800;DHT22;39708;53.210;6.948;2023-02-28T17:49:41;2.70;99.90
53800;DHT22;39708;53.210;6.948;2023-02-28T17:52:07;2.70;99.90
53800;DHT22;39708;53.210;6.948;2023-02-28T17:54:33;2.60;99.90
53800;DHT22;39708;53.210;6.948;2023-02-28T17:56:59;2.50;99.90
53800;DHT22;39708;53.210;6.948;2023-02-28T17:59:25;2.50;99.90
53800;DHT22;39708;53.210;6.948;2023-02-28T18:02:01;2.40;99.90
53800;DHT22;39708;53.210;6.948;2023-02-28T18:04:27;2.40;99.90
53800;DHT22;39708;53.210;6.948;2023-02-28T18:06:53;2.30;99.90
53800;DHT22;39708;53.210;6.948;2023-02-28T18:09:21;2.30;99.90
53800;DHT22;39708;53.210;6.948;2023-02-28T18:11:51;2.20;99.90
53800;DHT22;39708;53.210;6.948;2023-02-28T18:14:18;2.20;99.90
53800;DHT22;39708;53.210;6.948;2023-02-28T18:16:44;2.20;99.90
53800;DHT22;39708;53.210;6.948;2023-02-28T18:19:11;2.90;99.90
53800;DHT22;39708;53.210;6.948;2023-02-28T18:21:44;2.10;99.90
53800;DHT22;39708;53.210;6.948;2023-02-28T18:24:11;2.00;99.90
53800;DHT22;39708;53.210;6.948;2023-02-28T18:26:38;2.00;99.90